Time;durP1;ratioP1;P1;durP2;ratioP2;P2;SDS_P1;SDS_P2;PMS_P1;PMS_P2;Temp;Humidity;BMP_temperature;BMP_pressure;BME280_temperature;BME280_humidity;BME280_pressure;Samples;Min_cycle;Max_cycle;Signal;HPM_P1;HPM_P2
2022/04/10 00:00:23;;;;;;;8.88;3.80;;;;;;;;;;5005636;28;20038;-70
2022/04/10 00:02:49;;;;;;;7.32;3.70;;;;;;;;;;5007516;28;20045;-70
2022/04/10 00:05:14;;;;;;;8.32;4.10;;;;;;;;;;5009245;28;20032;-70
2022/04/10 00:07:40;;;;;;;10.35;4.03;;;;;;;;;;5008337;28;20038;-70
2022/04/10 00:10:05;;;;;;;6.90;3.50;;;;;;;;;;5009206;28;20077;-70
2022/04/10 00:12:34;;;;;;;7.53;3.75;;;;;;;;;;5009196;28;20429;-70
2022/04/10 00:15:00;;;;;;;9.63;4.65;;;;;;;;;;5009456;28;20046;-70
2022/04/10 00:17:26;;;;;;;7.68;3.97;;;;;;;;;;5009548;28;20514;-70
2022/04/10 00:19:51;;;;;;;9.95;4.25;;;;;;;;;;5009242;28;20026;-71
2022/04/10 00:22:16;;;;;;;8.95;4.45;;;;;;;;;;5008846;28;20034;-70
2022/04/10 00:24:42;;;;;;;7.30;4.00;;;;;;;;;;5012064;28;20123;-70
2022/04/10 00:27:07;;;;;;;7.05;4.10;;;;;;;;;;5009554;28;20046;-70
2022/04/10 00:29:32;;;;;;;11.60;4.47;;;;;;;;;;5008963;28;20491;-70
2022/04/10 00:31:59;;;;;;;9.52;4.10;;;;;;;;;;5009404;28;20017;-70
2022/04/10 00:34:24;;;;;;;7.45;4.15;;;;;;;;;;5007117;28;20132;-70
2022/04/10 00:36:50;;;;;;;9.10;4.50;;;;;;;;;;5008994;28;20121;-70
2022/04/10 00:39:15;;;;;;;12.32;4.97;;;;;;;;;;5009205;28;20044;-70
2022/04/10 00:41:40;;;;;;;8.32;4.32;;;;;;;;;;5007328;28;20021;-70
2022/04/10 00:44:09;;;;;;;9.90;4.57;;;;;;;;;;5010544;28;20036;-70
2022/04/10 00:46:35;;;;;;;9.38;5.05;;;;;;;;;;5008663;28;20046;-71
2022/04/10 00:49:00;;;;;;;12.68;4.63;;;;;;;;;;5008041;28;20412;-70
2022/04/10 00:51:40;;;;;;;9.68;5.03;;;;;;;;;;5009400;28;20041;-71
2022/04/10 00:54:11;;;;;;;13.25;4.72;;;;;;;;;;5006622;28;20041;-70
2022/04/10 00:56:37;;;;;;;11.00;4.50;;;;;;;;;;5008984;28;20018;-70
2022/04/10 00:59:03;;;;;;;11.27;4.50;;;;;;;;;;5008582;28;20407;-70
2022/04/10 01:01:29;;;;;;;9.63;4.40;;;;;;;;;;5008733;28;20546;-70
2022/04/10 01:03:54;;;;;;;8.35;4.43;;;;;;;;;;5009143;28;20042;-70
2022/04/10 01:06:21;;;;;;;10.52;4.78;;;;;;;;;;5007363;28;20038;-70
2022/04/10 01:08:46;;;;;;;11.75;5.03;;;;;;;;;;5008128;28;20065;-70
2022/04/10 01:11:12;;;;;;;10.15;5.13;;;;;;;;;;5008931;28;20026;-70
2022/04/10 01:13:37;;;;;;;9.95;4.82;;;;;;;;;;5007364;28;20026;-70
2022/04/10 01:16:03;;;;;;;8.73;4.28;;;;;;;;;;5008383;28;20084;-70
2022/04/10 01:18:29;;;;;;;11.18;4.95;;;;;;;;;;5008287;28;20091;-70
2022/04/10 01:20:54;;;;;;;11.23;4.50;;;;;;;;;;5008491;28;20057;-70
2022/04/10 01:23:20;;;;;;;10.15;4.85;;;;;;;;;;5011244;28;21036;-70
2022/04/10 01:25:46;;;;;;;11.18;4.40;;;;;;;;;;5008315;28;20065;-70
2022/04/10 01:28:12;;;;;;;9.13;4.68;;;;;;;;;;4997298;28;20104;-70
2022/04/10 01:30:38;;;;;;;12.50;5.05;;;;;;;;;;5006674;28;20049;-71
2022/04/10 01:33:04;;;;;;;11.98;4.43;;;;;;;;;;5008173;28;20048;-70
2022/04/10 01:35:31;;;;;;;9.35;4.68;;;;;;;;;;5008209;28;20100;-70
2022/04/10 01:37:59;;;;;;;9.25;4.80;;;;;;;;;;5003759;28;20025;-70
2022/04/10 01:40:24;;;;;;;9.15;4.80;;;;;;;;;;5007342;28;20124;-70
2022/04/10 01:42:49;;;;;;;9.25;4.38;;;;;;;;;;5009715;28;20172;-70
2022/04/10 01:45:15;;;;;;;8.55;4.20;;;;;;;;;;5007299;28;20045;-70
2022/04/10 01:47:40;;;;;;;12.95;4.32;;;;;;;;;;5007577;28;20029;-70
2022/04/10 01:50:06;;;;;;;12.00;4.50;;;;;;;;;;5007945;28;20492;-70
2022/04/10 01:52:31;;;;;;;12.05;4.40;;;;;;;;;;5007755;28;20041;-70
2022/04/10 01:54:56;;;;;;;7.75;3.95;;;;;;;;;;5006955;28;20546;-70
2022/04/10 01:57:22;;;;;;;13.43;4.30;;;;;;;;;;5008033;28;20036;-70
2022/04/10 01:59:47;;;;;;;8.38;4.05;;;;;;;;;;5007061;28;20416;-71
2022/04/10 02:02:12;;;;;;;9.68;4.25;;;;;;;;;;5007906;28;20060;-70
2022/04/10 02:04:38;;;;;;;8.98;4.10;;;;;;;;;;5010642;28;20423;-71
2022/04/10 02:07:03;;;;;;;13.30;4.40;;;;;;;;;;5006354;28;20061;-71
2022/04/10 02:09:29;;;;;;;8.27;3.70;;;;;;;;;;5006794;28;20049;-70
2022/04/10 02:11:54;;;;;;;7.80;3.88;;;;;;;;;;5007457;28;20057;-70
2022/04/10 02:14:19;;;;;;;9.95;4.20;;;;;;;;;;5007403;28;20026;-70
2022/04/10 02:16:44;;;;;;;18.25;4.28;;;;;;;;;;5007479;28;20025;-70
2022/04/10 02:19:10;;;;;;;8.90;4.40;;;;;;;;;;5006845;28;20033;-70
2022/04/10 02:21:36;;;;;;;10.95;3.92;;;;;;;;;;5007623;28;20030;-71
2022/04/10 02:24:01;;;;;;;10.07;4.35;;;;;;;;;;5005846;28;20038;-71
2022/04/10 02:26:27;;;;;;;9.35;4.10;;;;;;;;;;5006757;28;20411;-71
2022/04/10 02:28:52;;;;;;;11.63;4.10;;;;;;;;;;5006170;28;20120;-70
2022/04/10 02:31:17;;;;;;;7.38;4.10;;;;;;;;;;5006958;28;20680;-70
2022/04/10 02:33:43;;;;;;;10.80;4.10;;;;;;;;;;5005307;28;20041;-70
2022/04/10 02:36:08;;;;;;;9.75;4.38;;;;;;;;;;5006794;28;20034;-70
2022/04/10 02:38:34;;;;;;;6.80;3.58;;;;;;;;;;5007131;28;20033;-70
2022/04/10 02:40:59;;;;;;;9.77;4.32;;;;;;;;;;5007372;28;20046;-70
2022/04/10 02:43:25;;;;;;;10.63;3.90;;;;;;;;;;5007631;28;20033;-70
2022/04/10 02:45:50;;;;;;;10.27;3.90;;;;;;;;;;5006546;28;20034;-70
2022/04/10 02:48:15;;;;;;;11.00;4.72;;;;;;;;;;5006774;28;20041;-70
2022/04/10 02:50:41;;;;;;;10.07;3.78;;;;;;;;;;5006461;28;20033;-70
2022/04/10 02:53:06;;;;;;;11.20;4.38;;;;;;;;;;5007621;28;20026;-70
2022/04/10 02:55:32;;;;;;;8.15;4.00;;;;;;;;;;5006620;28;20038;-71
2022/04/10 02:57:57;;;;;;;10.93;4.25;;;;;;;;;;5006661;28;20119;-71
2022/04/10 03:00:22;;;;;;;9.45;4.43;;;;;;;;;;5006686;28;20038;-70
2022/04/10 03:02:48;;;;;;;8.60;3.70;;;;;;;;;;5006385;28;20111;-71
2022/04/10 03:05:17;;;;;;;11.00;3.80;;;;;;;;;;5011488;28;20026;-71
2022/04/10 03:07:43;;;;;;;8.05;3.83;;;;;;;;;;5005831;28;20038;-70
2022/04/10 03:10:09;;;;;;;8.00;4.10;;;;;;;;;;5005780;28;20056;-71
2022/04/10 03:12:34;;;;;;;11.68;4.05;;;;;;;;;;5007222;28;20566;-71
2022/04/10 03:14:59;;;;;;;11.00;3.80;;;;;;;;;;5005874;28;20101;-71
2022/04/10 03:17:25;;;;;;;12.27;3.88;;;;;;;;;;5007684;28;20026;-70
2022/04/10 03:19:50;;;;;;;9.48;4.47;;;;;;;;;;5006711;28;20030;-70
2022/04/10 03:22:16;;;;;;;9.07;4.03;;;;;;;;;;5006339;28;20037;-71
2022/04/10 03:24:41;;;;;;;8.85;3.75;;;;;;;;;;5010643;28;20034;-70
2022/04/10 03:27:06;;;;;;;8.88;3.65;;;;;;;;;;5001239;28;20130;-70
2022/04/10 03:29:31;;;;;;;9.93;4.00;;;;;;;;;;5007906;28;20025;-71
2022/04/10 03:31:57;;;;;;;12.27;3.88;;;;;;;;;;5006503;28;20022;-70
2022/04/10 03:34:22;;;;;;;7.40;3.78;;;;;;;;;;5006649;28;20092;-70
2022/04/10 03:36:48;;;;;;;10.27;4.10;;;;;;;;;;5006570;28;20070;-71
2022/04/10 03:39:13;;;;;;;10.27;4.15;;;;;;;;;;5010457;28;20615;-70
2022/04/10 03:41:38;;;;;;;9.30;3.50;;;;;;;;;;5009705;28;20038;-70
2022/04/10 03:44:04;;;;;;;7.55;3.25;;;;;;;;;;5012062;28;20033;-71
2022/04/10 03:46:29;;;;;;;7.38;3.55;;;;;;;;;;5009911;28;20038;-71
2022/04/10 03:48:55;;;;;;;9.27;3.55;;;;;;;;;;5009482;28;20041;-71
2022/04/10 03:51:20;;;;;;;12.07;3.78;;;;;;;;;;5009749;28;20034;-71
2022/04/10 03:53:46;;;;;;;10.85;4.22;;;;;;;;;;5009889;28;20133;-71
2022/04/10 03:56:11;;;;;;;9.30;3.88;;;;;;;;;;5009868;28;20030;-71
2022/04/10 03:58:37;;;;;;;6.63;3.45;;;;;;;;;;5010194;28;20034;-70
2022/04/10 04:01:02;;;;;;;5.35;3.10;;;;;;;;;;5009262;28;20052;-71
2022/04/10 04:03:28;;;;;;;8.00;3.63;;;;;;;;;;5009821;28;20049;-70
2022/04/10 04:05:55;;;;;;;9.80;3.88;;;;;;;;;;5009440;28;20095;-71
2022/04/10 04:08:20;;;;;;;8.45;3.70;;;;;;;;;;5010339;28;20029;-71
2022/04/10 04:10:46;;;;;;;11.98;4.35;;;;;;;;;;5003549;28;20042;-71
2022/04/10 04:13:11;;;;;;;14.88;5.13;;;;;;;;;;5009813;28;20038;-70
2022/04/10 04:15:36;;;;;;;11.60;4.40;;;;;;;;;;5009717;28;20121;-70
2022/04/10 04:18:02;;;;;;;13.80;5.07;;;;;;;;;;5009428;28;20543;-70
2022/04/10 04:20:27;;;;;;;12.38;4.38;;;;;;;;;;5009825;28;20025;-70
2022/04/10 04:22:54;;;;;;;9.35;4.65;;;;;;;;;;5009970;28;20411;-70
2022/04/10 04:25:19;;;;;;;12.05;4.60;;;;;;;;;;5008430;28;20073;-70
2022/04/10 04:27:45;;;;;;;14.25;4.82;;;;;;;;;;5008675;28;20066;-71
2022/04/10 04:30:10;;;;;;;11.95;5.45;;;;;;;;;;5009423;28;20061;-70
2022/04/10 04:32:35;;;;;;;12.18;5.15;;;;;;;;;;5009265;28;20018;-70
2022/04/10 04:35:01;;;;;;;9.80;4.82;;;;;;;;;;5009641;28;20025;-70
2022/04/10 04:37:26;;;;;;;12.50;5.40;;;;;;;;;;5007262;28;20088;-71
2022/04/10 04:39:52;;;;;;;12.55;5.43;;;;;;;;;;5009756;28;20507;-71
2022/04/10 04:42:17;;;;;;;9.77;4.43;;;;;;;;;;5008904;28;20463;-70
2022/04/10 04:44:42;;;;;;;10.27;4.45;;;;;;;;;;5010727;28;20026;-71
2022/04/10 04:47:08;;;;;;;13.15;5.28;;;;;;;;;;5008389;28;20449;-71
2022/04/10 04:49:33;;;;;;;19.35;6.78;;;;;;;;;;5008652;28;20037;-71
2022/04/10 04:51:58;;;;;;;17.63;6.80;;;;;;;;;;5008723;28;20041;-71
2022/04/10 04:54:24;;;;;;;19.55;6.82;;;;;;;;;;5009378;28;20049;-70
2022/04/10 04:56:49;;;;;;;14.40;5.82;;;;;;;;;;5008618;28;20034;-71
2022/04/10 04:59:15;;;;;;;20.48;5.97;;;;;;;;;;5009444;28;20514;-71
2022/04/10 05:01:41;;;;;;;15.13;5.60;;;;;;;;;;5007940;28;20046;-70
2022/04/10 05:04:07;;;;;;;14.18;5.68;;;;;;;;;;5009838;28;20527;-71
2022/04/10 05:06:33;;;;;;;15.05;5.25;;;;;;;;;;5007136;28;20046;-71
2022/04/10 05:08:58;;;;;;;14.30;5.65;;;;;;;;;;5008899;28;20050;-71
2022/04/10 05:11:23;;;;;;;15.45;5.03;;;;;;;;;;5008704;28;20038;-71
2022/04/10 05:13:49;;;;;;;13.73;5.07;;;;;;;;;;5008287;28;20045;-71
2022/04/10 05:16:14;;;;;;;11.43;4.78;;;;;;;;;;5008782;28;20137;-71
2022/04/10 05:18:40;;;;;;;18.10;5.53;;;;;;;;;;5007830;28;20049;-70
2022/04/10 05:21:05;;;;;;;13.20;4.93;;;;;;;;;;5006421;28;20078;-70
2022/04/10 05:23:31;;;;;;;11.90;4.75;;;;;;;;;;5009827;28;20030;-70
2022/04/10 05:25:56;;;;;;;11.35;4.43;;;;;;;;;;5009233;28;20080;-71
2022/04/10 05:28:22;;;;;;;9.48;4.43;;;;;;;;;;5005896;28;20041;-71
2022/04/10 05:30:48;;;;;;;11.60;4.43;;;;;;;;;;5008482;28;20049;-71
2022/04/10 05:33:13;;;;;;;16.52;4.72;;;;;;;;;;5007485;28;20630;-70
2022/04/10 05:35:39;;;;;;;13.23;4.40;;;;;;;;;;5008255;28;20101;-70
2022/04/10 05:38:04;;;;;;;14.35;5.00;;;;;;;;;;5006696;28;20113;-70
2022/04/10 05:40:30;;;;;;;11.35;3.97;;;;;;;;;;5008335;28;20038;-71
2022/04/10 05:42:56;;;;;;;7.80;3.83;;;;;;;;;;5009103;28;20484;-70
2022/04/10 05:45:21;;;;;;;9.52;4.25;;;;;;;;;;5008021;28;20062;-71
2022/04/10 05:47:47;;;;;;;9.30;4.65;;;;;;;;;;5006793;28;20447;-71
2022/04/10 05:50:13;;;;;;;9.15;4.63;;;;;;;;;;5008323;28;20491;-71
2022/04/10 05:52:43;;;;;;;9.77;4.22;;;;;;;;;;5007465;28;20149;-70
2022/04/10 05:55:09;;;;;;;10.18;4.10;;;;;;;;;;5008091;28;20044;-70
2022/04/10 05:57:35;;;;;;;9.70;3.88;;;;;;;;;;5007461;28;20068;-71
2022/04/10 06:00:02;;;;;;;10.98;3.92;;;;;;;;;;5007671;28;20499;-70
2022/04/10 06:02:28;;;;;;;11.48;4.43;;;;;;;;;;5007223;28;20065;-71
2022/04/10 06:04:53;;;;;;;12.82;4.78;;;;;;;;;;5010869;28;20029;-70
2022/04/10 06:07:18;;;;;;;16.00;5.18;;;;;;;;;;5006125;28;20038;-70
2022/04/10 06:09:44;;;;;;;11.35;5.28;;;;;;;;;;5007320;28;20065;-70
2022/04/10 06:12:09;;;;;;;12.23;5.00;;;;;;;;;;5007913;28;20046;-70
2022/04/10 06:14:35;;;;;;;14.52;5.60;;;;;;;;;;5006537;28;20061;-70
2022/04/10 06:17:00;;;;;;;14.15;4.75;;;;;;;;;;5006657;28;20022;-70
2022/04/10 06:19:27;;;;;;;15.43;5.32;;;;;;;;;;5006413;28;20038;-70
2022/04/10 06:21:52;;;;;;;12.23;5.65;;;;;;;;;;5007523;28;20041;-71
2022/04/10 06:24:20;;;;;;;13.77;5.10;;;;;;;;;;5009870;28;20042;-71
2022/04/10 06:26:48;;;;;;;11.85;5.40;;;;;;;;;;5003084;28;20046;-70
2022/04/10 06:29:14;;;;;;;12.50;4.80;;;;;;;;;;4992142;28;20823;-71
2022/04/10 06:31:39;;;;;;;14.13;5.30;;;;;;;;;;5005398;28;20026;-71
2022/04/10 06:34:04;;;;;;;15.70;5.70;;;;;;;;;;5000547;28;20033;-70
2022/04/10 06:36:30;;;;;;;19.25;6.00;;;;;;;;;;5005477;28;20579;-70
2022/04/10 06:38:55;;;;;;;13.93;5.65;;;;;;;;;;4995542;28;20068;-70
2022/04/10 06:41:20;;;;;;;12.27;5.85;;;;;;;;;;5006802;28;20038;-70
2022/04/10 06:43:46;;;;;;;13.18;5.65;;;;;;;;;;4992352;28;20025;-70
2022/04/10 06:46:11;;;;;;;15.27;6.15;;;;;;;;;;4996895;28;20044;-70
2022/04/10 06:48:36;;;;;;;18.00;6.95;;;;;;;;;;5024640;28;20040;-70
2022/04/10 06:51:03;;;;;;;13.10;5.65;;;;;;;;;;4994264;28;20057;-71
2022/04/10 06:53:28;;;;;;;18.58;5.90;;;;;;;;;;5008988;28;20092;-70
2022/04/10 06:55:54;;;;;;;13.73;5.75;;;;;;;;;;5008660;28;20049;-70
2022/04/10 06:58:22;;;;;;;15.85;6.40;;;;;;;;;;5020264;28;20081;-71
2022/04/10 07:00:48;;;;;;;15.60;6.18;;;;;;;;;;5017585;28;20045;-71
2022/04/10 07:03:13;;;;;;;17.30;6.53;;;;;;;;;;5006588;28;20046;-71
2022/04/10 07:05:39;;;;;;;13.88;6.30;;;;;;;;;;5006940;28;20034;-71
2022/04/10 07:08:05;;;;;;;18.20;6.60;;;;;;;;;;5001720;28;20080;-71
2022/04/10 07:10:30;;;;;;;12.57;5.65;;;;;;;;;;5002168;28;20421;-71
2022/04/10 07:12:56;;;;;;;19.40;7.60;;;;;;;;;;5001286;28;20022;-71
2022/04/10 07:15:21;;;;;;;19.42;7.32;;;;;;;;;;4997406;28;20046;-71
2022/04/10 07:17:47;;;;;;;19.77;7.00;;;;;;;;;;5003511;28;20038;-71
2022/04/10 07:20:12;;;;;;;25.73;8.65;;;;;;;;;;5009961;28;20064;-71
2022/04/10 07:25:22;;;;;;;26.48;9.25;;;;;;;;;;5008039;28;20040;-71
2022/04/10 07:27:48;;;;;;;26.90;9.30;;;;;;;;;;5008787;28;20121;-69
2022/04/10 07:30:13;;;;;;;27.92;9.93;;;;;;;;;;5009201;28;20117;-69
2022/04/10 07:32:39;;;;;;;21.13;7.95;;;;;;;;;;5014348;28;20038;-71
2022/04/10 07:35:05;;;;;;;25.45;9.27;;;;;;;;;;5010145;28;20484;-71
2022/04/10 07:37:31;;;;;;;16.13;7.47;;;;;;;;;;5004286;28;20026;-70
2022/04/10 07:39:57;;;;;;;29.50;8.68;;;;;;;;;;5008801;28;20025;-70
2022/04/10 07:42:23;;;;;;;23.50;8.75;;;;;;;;;;5007925;28;20688;-72
2022/04/10 07:44:48;;;;;;;23.45;7.63;;;;;;;;;;5015438;28;20085;-71
2022/04/10 07:47:26;;;;;;;27.50;8.70;;;;;;;;;;5018307;28;20052;-71
2022/04/10 07:49:53;;;;;;;25.40;7.45;;;;;;;;;;5011266;28;20030;-71
2022/04/10 07:52:18;;;;;;;19.58;7.93;;;;;;;;;;5011126;28;20021;-71
2022/04/10 07:54:44;;;;;;;23.63;8.43;;;;;;;;;;5008599;28;20413;-71
2022/04/10 07:57:09;;;;;;;22.48;7.40;;;;;;;;;;5009493;28;20432;-71
2022/04/10 07:59:34;;;;;;;17.85;7.10;;;;;;;;;;5007726;28;20631;-71
2022/04/10 08:01:59;;;;;;;18.83;7.70;;;;;;;;;;5009530;28;20048;-71
2022/04/10 08:04:25;;;;;;;20.55;7.43;;;;;;;;;;5011531;28;20026;-71
2022/04/10 08:06:51;;;;;;;20.25;7.30;;;;;;;;;;5011358;28;20046;-71
2022/04/10 08:09:16;;;;;;;17.98;7.30;;;;;;;;;;5010590;28;20144;-71
2022/04/10 08:11:41;;;;;;;21.08;8.32;;;;;;;;;;5010925;28;20092;-71
2022/04/10 08:14:07;;;;;;;18.52;7.13;;;;;;;;;;5010064;28;20092;-71
2022/04/10 08:16:32;;;;;;;22.33;8.77;;;;;;;;;;5009979;28;20029;-71
2022/04/10 08:18:57;;;;;;;24.27;8.45;;;;;;;;;;5011318;28;20043;-71
2022/04/10 08:21:23;;;;;;;20.25;7.80;;;;;;;;;;5009881;28;20033;-71
2022/04/10 08:23:48;;;;;;;20.38;8.52;;;;;;;;;;5012092;28;20042;-71
2022/04/10 08:26:13;;;;;;;23.10;9.15;;;;;;;;;;5010937;28;20042;-71
2022/04/10 08:28:39;;;;;;;22.83;9.50;;;;;;;;;;4996852;28;20084;-71
2022/04/10 08:31:04;;;;;;;23.48;9.13;;;;;;;;;;5011133;28;20026;-71
2022/04/10 08:33:30;;;;;;;30.52;9.10;;;;;;;;;;5010216;28;20037;-71
2022/04/10 08:35:56;;;;;;;21.75;8.52;;;;;;;;;;5010561;28;20164;-71
2022/04/10 08:38:22;;;;;;;25.52;9.40;;;;;;;;;;5007875;28;20042;-71
2022/04/10 08:40:49;;;;;;;22.83;8.52;;;;;;;;;;5004780;28;20053;-71
2022/04/10 08:43:14;;;;;;;26.48;8.57;;;;;;;;;;5009953;28;20022;-71
2022/04/10 08:45:40;;;;;;;23.30;8.95;;;;;;;;;;5009378;28;20076;-71
2022/04/10 08:48:06;;;;;;;26.40;10.18;;;;;;;;;;5009402;28;20050;-71
2022/04/10 08:50:31;;;;;;;23.17;8.63;;;;;;;;;;5008781;28;20388;-71
2022/04/10 08:52:58;;;;;;;20.05;9.07;;;;;;;;;;5008110;28;20092;-71
2022/04/10 08:55:25;;;;;;;20.98;8.93;;;;;;;;;;5009880;28;20029;-71
2022/04/10 08:57:50;;;;;;;21.65;9.00;;;;;;;;;;5008224;28;20049;-71
2022/04/10 09:00:18;;;;;;;20.65;8.82;;;;;;;;;;5008730;28;20064;-71
2022/04/10 09:02:48;;;;;;;21.08;7.88;;;;;;;;;;5008475;28;20531;-71
2022/04/10 09:05:24;;;;;;;15.90;7.60;;;;;;;;;;5004337;28;20042;-71
2022/04/10 09:08:10;;;;;;;15.65;6.55;;;;;;;;;;4996616;28;20523;-71
2022/04/10 09:10:54;;;;;;;19.15;7.10;;;;;;;;;;4993268;28;20064;-71
2022/04/10 09:13:36;;;;;;;15.18;6.90;;;;;;;;;;4993955;28;20010;-71
2022/04/10 09:16:02;;;;;;;19.23;7.20;;;;;;;;;;4990793;28;20500;-71
2022/04/10 09:18:27;;;;;;;15.60;7.78;;;;;;;;;;4991792;28;20151;-71
2022/04/10 09:21:08;;;;;;;15.20;7.20;;;;;;;;;;4991744;28;20099;-71
2022/04/10 09:23:34;;;;;;;16.15;7.05;;;;;;;;;;5001576;28;20034;-71
2022/04/10 09:25:59;;;;;;;16.90;7.00;;;;;;;;;;5003345;28;20054;-71
2022/04/10 09:28:47;;;;;;;16.80;6.68;;;;;;;;;;5006535;28;20038;-70
2022/04/10 09:31:31;;;;;;;17.40;7.30;;;;;;;;;;5000271;28;20047;-71
2022/04/10 09:33:59;;;;;;;12.85;6.28;;;;;;;;;;4979764;28;20432;-71
2022/04/10 09:36:46;;;;;;;10.65;4.63;;;;;;;;;;4982816;28;20562;-71
2022/04/10 09:39:32;;;;;;;12.93;4.85;;;;;;;;;;4984620;28;20124;-71
2022/04/10 09:42:06;;;;;;;13.48;5.03;;;;;;;;;;4987945;28;20128;-71
2022/04/10 09:44:33;;;;;;;14.18;5.22;;;;;;;;;;4984605;28;20100;-71
2022/04/10 09:47:01;;;;;;;7.45;3.70;;;;;;;;;;4979029;28;20038;-71
2022/04/10 09:49:37;;;;;;;10.98;4.35;;;;;;;;;;4981945;28;20033;-71
2022/04/10 09:52:05;;;;;;;10.55;4.00;;;;;;;;;;4973665;28;20033;-71
2022/04/10 09:54:36;;;;;;;11.23;4.40;;;;;;;;;;5004340;28;20125;-71
2022/04/10 09:57:09;;;;;;;13.45;5.28;;;;;;;;;;5002322;28;20077;-71
2022/04/10 09:59:40;;;;;;;9.32;4.82;;;;;;;;;;5007215;28;20041;-71
2022/04/10 10:02:06;;;;;;;12.77;5.13;;;;;;;;;;5000760;28;20148;-71
2022/04/10 10:04:34;;;;;;;10.48;4.95;;;;;;;;;;5004475;28;20033;-71
2022/04/10 10:07:03;;;;;;;5.97;3.83;;;;;;;;;;5008342;28;20034;-71
2022/04/10 10:09:31;;;;;;;9.05;4.18;;;;;;;;;;5006882;28;20045;-71
2022/04/10 10:11:57;;;;;;;9.43;3.83;;;;;;;;;;5008142;28;20088;-72
2022/04/10 10:14:22;;;;;;;7.28;3.15;;;;;;;;;;5003213;28;20042;-71
2022/04/10 10:16:49;;;;;;;6.85;2.90;;;;;;;;;;5005117;28;20092;-71
2022/04/10 10:19:15;;;;;;;4.15;2.67;;;;;;;;;;5008651;28;20032;-71
2022/04/10 10:21:41;;;;;;;8.73;3.65;;;;;;;;;;5008055;28;20165;-71
2022/04/10 10:24:08;;;;;;;8.90;3.42;;;;;;;;;;5007285;28;20128;-71
2022/04/10 10:26:37;;;;;;;6.35;2.97;;;;;;;;;;5008427;28;20065;-71
2022/04/10 10:29:27;;;;;;;5.45;3.70;;;;;;;;;;5006552;28;20503;-71
2022/04/10 10:32:11;;;;;;;4.28;2.45;;;;;;;;;;5005358;28;20068;-71
2022/04/10 10:34:36;;;;;;;4.43;2.90;;;;;;;;;;5007792;28;20081;-71
2022/04/10 10:37:03;;;;;;;5.40;3.40;;;;;;;;;;5006638;28;20026;-71
2022/04/10 10:39:44;;;;;;;7.85;3.92;;;;;;;;;;5006650;28;20178;-71
2022/04/10 10:42:11;;;;;;;10.38;3.70;;;;;;;;;;5002300;28;20046;-71
2022/04/10 10:44:41;;;;;;;8.07;3.75;;;;;;;;;;5007434;28;20100;-71
2022/04/10 10:47:25;;;;;;;9.20;3.38;;;;;;;;;;5002676;28;20108;-70
2022/04/10 10:49:53;;;;;;;;;;;;;;;;;;4992430;28;20042;-72
2022/04/10 10:52:19;;;;;;;7.95;3.13;;;;;;;;;;4989514;28;20007;-72
2022/04/10 10:54:54;;;;;;;8.05;3.00;;;;;;;;;;4992349;28;20046;-71
2022/04/10 10:57:27;;;;;;;6.40;2.58;;;;;;;;;;4988447;28;20041;-71
2022/04/10 11:00:04;;;;;;;;;;;;;;;;;;4987155;28;20762;-72
2022/04/10 11:02:32;;;;;;;7.55;2.42;;;;;;;;;;4996232;28;20505;-71
2022/04/10 11:04:58;;;;;;;4.75;2.40;;;;;;;;;;4992746;28;20038;-71
2022/04/10 11:07:25;;;;;;;5.15;2.50;;;;;;;;;;4993542;28;20042;-71
2022/04/10 11:10:04;;;;;;;4.97;2.78;;;;;;;;;;4990147;28;20133;-72
2022/04/10 11:12:30;;;;;;;7.55;3.15;;;;;;;;;;4996113;28;20049;-72
2022/04/10 11:14:56;;;;;;;7.32;3.25;;;;;;;;;;4993693;28;20112;-72
2022/04/10 11:17:25;;;;;;;4.90;2.70;;;;;;;;;;4992286;28;20049;-71
2022/04/10 11:19:55;;;;;;;7.35;3.05;;;;;;;;;;4999505;28;20038;-72
2022/04/10 11:22:22;;;;;;;6.65;2.80;;;;;;;;;;5005289;28;20025;-72
2022/04/10 11:24:58;;;;;;;4.85;2.20;;;;;;;;;;4999991;28;20041;-72
2022/04/10 11:27:41;;;;;;;6.20;2.85;;;;;;;;;;4995535;28;20097;-72
2022/04/10 11:30:07;;;;;;;6.43;3.00;;;;;;;;;;4999776;28;20048;-71
2022/04/10 11:32:43;;;;;;;6.20;3.40;;;;;;;;;;5004529;28;20038;-71
2022/04/10 11:35:18;;;;;;;7.07;3.10;;;;;;;;;;4998270;28;20048;-72
2022/04/10 11:37:46;;;;;;;5.00;2.85;;;;;;;;;;5003735;28;20030;-72
2022/04/10 11:40:12;;;;;;;9.93;3.13;;;;;;;;;;5003731;28;20488;-71
2022/04/10 11:42:37;;;;;;;6.38;3.28;;;;;;;;;;5001263;28;20045;-72
2022/04/10 11:45:03;;;;;;;6.53;3.15;;;;;;;;;;5004601;28;20070;-72
2022/04/10 11:47:28;;;;;;;5.40;2.80;;;;;;;;;;5002338;28;20029;-72
2022/04/10 11:49:54;;;;;;;5.85;2.88;;;;;;;;;;5003597;28;20471;-71
2022/04/10 11:52:20;;;;;;;7.65;3.13;;;;;;;;;;5002977;28;20605;-71
2022/04/10 11:54:49;;;;;;;5.68;2.90;;;;;;;;;;5004183;28;20576;-71
2022/04/10 11:57:15;;;;;;;4.10;2.78;;;;;;;;;;5003548;28;20076;-72
2022/04/10 11:59:43;;;;;;;6.20;2.50;;;;;;;;;;5002171;28;20702;-72
2022/04/10 12:02:10;;;;;;;5.50;2.65;;;;;;;;;;5006436;28;20058;-72
2022/04/10 12:04:40;;;;;;;8.65;3.85;;;;;;;;;;5007433;28;20545;-72
2022/04/10 12:07:15;;;;;;;6.60;3.30;;;;;;;;;;5002808;28;20040;-72
2022/04/10 12:09:41;;;;;;;8.65;3.47;;;;;;;;;;5007453;28;20042;-72
2022/04/10 12:12:07;;;;;;;6.50;3.20;;;;;;;;;;5007453;28;20045;-72
2022/04/10 12:14:33;;;;;;;5.93;3.10;;;;;;;;;;5006447;28;20053;-72
2022/04/10 12:16:58;;;;;;;4.82;3.10;;;;;;;;;;5008071;28;20050;-72
2022/04/10 12:19:35;;;;;;;5.82;2.50;;;;;;;;;;5008228;28;20038;-72
2022/04/10 12:22:24;;;;;;;6.15;2.38;;;;;;;;;;4981288;28;20069;-73
2022/04/10 12:24:56;;;;;;;4.82;2.40;;;;;;;;;;4969249;28;20521;-73
2022/04/10 12:27:22;;;;;;;5.50;2.77;;;;;;;;;;4968266;28;20043;-74
2022/04/10 12:29:48;;;;;;;4.15;2.63;;;;;;;;;;4983103;28;20448;-72
2022/04/10 12:32:14;;;;;;;4.65;3.00;;;;;;;;;;4988274;28;20163;-73
2022/04/10 12:34:44;;;;;;;5.80;2.92;;;;;;;;;;4987544;28;20653;-73
2022/04/10 12:37:12;;;;;;;7.40;3.28;;;;;;;;;;4984903;28;20026;-73
2022/04/10 12:39:38;;;;;;;6.70;2.83;;;;;;;;;;4977690;28;20543;-73
2022/04/10 12:42:09;;;;;;;7.40;3.55;;;;;;;;;;4973454;28;20047;-75
2022/04/10 12:44:37;;;;;;;5.43;2.88;;;;;;;;;;4982571;28;20042;-79
2022/04/10 12:47:03;;;;;;;5.25;3.33;;;;;;;;;;4982455;28;20129;-74
2022/04/10 12:49:29;;;;;;;7.95;3.60;;;;;;;;;;4982971;28;20034;-76
2022/04/10 12:51:55;;;;;;;7.93;3.88;;;;;;;;;;4979340;28;20605;-76
2022/04/10 12:54:39;;;;;;;4.65;2.72;;;;;;;;;;4986321;28;20475;-79
2022/04/10 12:57:06;;;;;;;5.22;3.28;;;;;;;;;;4983236;28;20056;-74
2022/04/10 12:59:38;;;;;;;5.03;3.55;;;;;;;;;;4984545;28;20093;-77
2022/04/10 13:02:09;;;;;;;7.22;3.83;;;;;;;;;;4982207;28;20163;-72
2022/04/10 13:04:35;;;;;;;8.05;3.85;;;;;;;;;;4987023;28;20061;-74
2022/04/10 13:07:00;;;;;;;7.80;4.28;;;;;;;;;;4983708;28;20030;-75
2022/04/10 13:09:26;;;;;;;9.57;4.20;;;;;;;;;;4985445;28;20057;-76
2022/04/10 13:11:53;;;;;;;8.95;4.20;;;;;;;;;;4985610;28;20042;-76
2022/04/10 13:14:18;;;;;;;7.78;4.45;;;;;;;;;;4985295;28;20176;-78
2022/04/10 13:16:49;;;;;;;12.48;4.65;;;;;;;;;;4986939;28;20109;-71
2022/04/10 13:19:16;;;;;;;8.40;4.63;;;;;;;;;;4985041;28;20621;-69
2022/04/10 13:21:45;;;;;;;7.35;4.60;;;;;;;;;;4984892;28;20096;-67
2022/04/10 13:24:12;;;;;;;9.35;4.40;;;;;;;;;;4981829;28;20050;-70
2022/04/10 13:26:39;;;;;;;7.65;3.25;;;;;;;;;;4986035;28;20057;-70
2022/04/10 13:29:07;;;;;;;5.40;2.72;;;;;;;;;;4986965;28;20042;-72
2022/04/10 13:31:33;;;;;;;8.43;4.18;;;;;;;;;;4983412;28;20650;-66
2022/04/10 13:33:58;;;;;;;8.93;4.40;;;;;;;;;;4985802;28;20034;-68
2022/04/10 13:36:24;;;;;;;11.32;4.75;;;;;;;;;;4983423;28;20042;-66
2022/04/10 13:38:49;;;;;;;10.50;4.57;;;;;;;;;;4983413;28;20069;-70
2022/04/10 13:41:15;;;;;;;7.20;4.22;;;;;;;;;;4985098;28;20038;-70
2022/04/10 13:43:40;;;;;;;8.13;4.82;;;;;;;;;;4983915;28;20062;-70
2022/04/10 13:46:06;;;;;;;7.57;5.15;;;;;;;;;;4986101;28;20169;-69
2022/04/10 13:48:31;;;;;;;8.50;4.57;;;;;;;;;;4983196;28;20128;-70
2022/04/10 13:50:57;;;;;;;8.75;4.47;;;;;;;;;;4982699;28;20046;-69
2022/04/10 13:53:23;;;;;;;7.70;4.72;;;;;;;;;;4982831;28;20611;-70
2022/04/10 13:55:48;;;;;;;10.57;5.55;;;;;;;;;;4982112;28;20070;-70
2022/04/10 13:58:14;;;;;;;9.75;5.03;;;;;;;;;;4985197;28;20065;-70
2022/04/10 14:00:39;;;;;;;8.88;4.90;;;;;;;;;;4978866;28;20181;-70
2022/04/10 14:03:05;;;;;;;8.55;4.13;;;;;;;;;;4981359;28;20050;-70
2022/04/10 14:05:30;;;;;;;11.93;4.80;;;;;;;;;;4985326;28;20034;-70
2022/04/10 14:07:56;;;;;;;9.68;4.65;;;;;;;;;;4980077;28;20169;-69
2022/04/10 14:10:21;;;;;;;8.95;4.60;;;;;;;;;;4985137;28;20069;-69
2022/04/10 14:12:47;;;;;;;7.10;3.83;;;;;;;;;;4979146;28;20399;-69
2022/04/10 14:15:12;;;;;;;5.13;3.33;;;;;;;;;;4984690;28;20050;-69
2022/04/10 14:17:38;;;;;;;6.20;3.70;;;;;;;;;;4985380;28;20535;-68
2022/04/10 14:20:03;;;;;;;7.07;3.83;;;;;;;;;;4985764;28;20046;-68
2022/04/10 14:22:29;;;;;;;6.15;3.90;;;;;;;;;;4984384;28;20113;-67
2022/04/10 14:24:55;;;;;;;9.90;4.13;;;;;;;;;;4980529;28;20038;-68
2022/04/10 14:27:20;;;;;;;6.60;4.07;;;;;;;;;;4984680;28;20097;-67
2022/04/10 14:29:46;;;;;;;6.47;3.65;;;;;;;;;;4982461;28;20072;-68
2022/04/10 14:32:12;;;;;;;8.07;4.03;;;;;;;;;;4983388;28;20038;-67
2022/04/10 14:34:37;;;;;;;7.07;4.00;;;;;;;;;;4978579;28;20153;-70
2022/04/10 14:37:03;;;;;;;6.93;3.83;;;;;;;;;;4980544;28;20018;-69